sensor_id;sensor_type;location;lat;lon;timestamp;P1;durP1;ratioP1;P2;durP2;ratioP2
46751;SDS011;32497;48.936;9.270;2023-03-14T00:04:17;0.87;;;0.10;;
46751;SDS011;32497;48.936;9.270;2023-03-14T00:09:20;0.37;;;0.13;;
46751;SDS011;32497;48.936;9.270;2023-03-14T00:14:21;0.40;;;0.20;;
46751;SDS011;32497;48.936;9.270;2023-03-14T00:19:22;0.47;;;0.20;;
46751;SDS011;32497;48.936;9.270;2023-03-14T00:24:25;0.27;;;0.10;;
46751;SDS011;32497;48.936;9.270;2023-03-14T00:29:26;0.50;;;0.30;;
46751;SDS011;32497;48.936;9.270;2023-03-14T00:34:28;0.77;;;0.20;;
46751;SDS011;32497;48.936;9.270;2023-03-14T00:39:31;0.00;;;0.00;;
46751;SDS011;32497;48.936;9.270;2023-03-14T00:44:32;0.23;;;0.10;;
46751;SDS011;32497;48.936;9.270;2023-03-14T00:49:33;0.27;;;0.10;;
46751;SDS011;32497;48.936;9.270;2023-03-14T00:54:36;2.00;;;0.10;;
46751;SDS011;32497;48.936;9.270;2023-03-14T00:59:37;0.20;;;0.10;;
46751;SDS011;32497;48.936;9.270;2023-03-14T01:04:38;0.10;;;0.00;;
46751;SDS011;32497;48.936;9.270;2023-03-14T01:09:40;0.53;;;0.10;;
46751;SDS011;32497;48.936;9.270;2023-03-14T01:14:43;2.43;;;0.20;;
46751;SDS011;32497;48.936;9.270;2023-03-14T01:19:44;0.53;;;0.20;;
46751;SDS011;32497;48.936;9.270;2023-03-14T01:24:46;0.40;;;0.10;;
46751;SDS011;32497;48.936;9.270;2023-03-14T01:29:47;0.50;;;0.20;;
46751;SDS011;32497;48.936;9.270;2023-03-14T01:34:49;0.07;;;0.07;;
46751;SDS011;32497;48.936;9.270;2023-03-14T01:39:52;0.17;;;0.10;;
46751;SDS011;32497;48.936;9.270;2023-03-14T01:44:54;0.17;;;0.00;;
46751;SDS011;32497;48.936;9.270;2023-03-14T01:49:58;0.40;;;0.10;;
46751;SDS011;32497;48.936;9.270;2023-03-14T01:55:06;0.40;;;0.10;;
46751;SDS011;32497;48.936;9.270;2023-03-14T02:00:13;0.00;;;0.00;;
46751;SDS011;32497;48.936;9.270;2023-03-14T02:05:19;2.07;;;0.10;;
46751;SDS011;32497;48.936;9.270;2023-03-14T02:10:31;0.10;;;0.00;;
46751;SDS011;32497;48.936;9.270;2023-03-14T02:15:36;0.20;;;0.00;;
46751;SDS011;32497;48.936;9.270;2023-03-14T02:20:47;0.33;;;0.10;;
46751;SDS011;32497;48.936;9.270;2023-03-14T02:25:56;0.00;;;0.00;;
46751;SDS011;32497;48.936;9.270;2023-03-14T02:31:03;0.10;;;0.07;;
46751;SDS011;32497;48.936;9.270;2023-03-14T02:36:09;0.10;;;0.00;;
46751;SDS011;32497;48.936;9.270;2023-03-14T02:41:13;0.10;;;0.10;;
46751;SDS011;32497;48.936;9.270;2023-03-14T02:46:22;0.53;;;0.10;;
46751;SDS011;32497;48.936;9.270;2023-03-14T02:51:24;0.10;;;0.00;;
46751;SDS011;32497;48.936;9.270;2023-03-14T02:56:27;0.30;;;0.13;;
46751;SDS011;32497;48.936;9.270;2023-03-14T03:01:31;0.30;;;0.10;;
46751;SDS011;32497;48.936;9.270;2023-03-14T03:06:33;0.10;;;0.00;;
46751;SDS011;32497;48.936;9.270;2023-03-14T03:11:34;0.50;;;0.20;;
46751;SDS011;32497;48.936;9.270;2023-03-14T03:16:39;0.20;;;0.10;;
46751;SDS011;32497;48.936;9.270;2023-03-14T03:21:40;0.00;;;0.00;;
46751;SDS011;32497;48.936;9.270;2023-03-14T03:26:42;0.50;;;0.10;;
46751;SDS011;32497;48.936;9.270;2023-03-14T03:31:46;1.30;;;0.30;;
46751;SDS011;32497;48.936;9.270;2023-03-14T03:36:47;0.27;;;0.10;;
46751;SDS011;32497;48.936;9.270;2023-03-14T03:41:49;0.23;;;0.17;;
46751;SDS011;32497;48.936;9.270;2023-03-14T03:46:51;0.00;;;0.00;;
46751;SDS011;32497;48.936;9.270;2023-03-14T03:51:53;1.70;;;0.03;;
46751;SDS011;32497;48.936;9.270;2023-03-14T03:56:54;1.43;;;0.20;;
46751;SDS011;32497;48.936;9.270;2023-03-14T04:01:57;0.00;;;0.00;;
46751;SDS011;32497;48.936;9.270;2023-03-14T04:06:58;0.60;;;0.10;;
46751;SDS011;32497;48.936;9.270;2023-03-14T04:11:59;0.20;;;0.10;;
46751;SDS011;32497;48.936;9.270;2023-03-14T04:17:11;0.30;;;0.10;;
46751;SDS011;32497;48.936;9.270;2023-03-14T04:22:13;0.40;;;0.10;;
46751;SDS011;32497;48.936;9.270;2023-03-14T04:27:21;0.60;;;0.10;;
46751;SDS011;32497;48.936;9.270;2023-03-14T04:32:24;2.80;;;0.10;;
46751;SDS011;32497;48.936;9.270;2023-03-14T04:37:25;1.30;;;0.20;;
46751;SDS011;32497;48.936;9.270;2023-03-14T04:42:27;0.87;;;0.10;;
46751;SDS011;32497;48.936;9.270;2023-03-14T04:47:30;0.20;;;0.10;;
46751;SDS011;32497;48.936;9.270;2023-03-14T04:52:32;0.10;;;0.10;;
46751;SDS011;32497;48.936;9.270;2023-03-14T04:57:34;0.60;;;0.17;;
46751;SDS011;32497;48.936;9.270;2023-03-14T05:02:37;0.53;;;0.10;;
46751;SDS011;32497;48.936;9.270;2023-03-14T05:07:50;1.50;;;0.30;;
46751;SDS011;32497;48.936;9.270;2023-03-14T05:13:29;0.90;;;0.20;;
46751;SDS011;32497;48.936;9.270;2023-03-14T05:18:52;1.17;;;0.20;;
46751;SDS011;32497;48.936;9.270;2023-03-14T05:24:11;0.83;;;0.20;;
46751;SDS011;32497;48.936;9.270;2023-03-14T05:29:33;1.53;;;0.20;;
46751;SDS011;32497;48.936;9.270;2023-03-14T05:34:54;0.23;;;0.10;;
46751;SDS011;32497;48.936;9.270;2023-03-14T05:40:12;0.10;;;0.10;;
46751;SDS011;32497;48.936;9.270;2023-03-14T05:45:21;1.23;;;0.47;;
46751;SDS011;32497;48.936;9.270;2023-03-14T05:50:56;0.33;;;0.20;;
46751;SDS011;32497;48.936;9.270;2023-03-14T05:56:08;0.13;;;0.10;;
46751;SDS011;32497;48.936;9.270;2023-03-14T06:01:20;0.27;;;0.20;;
46751;SDS011;32497;48.936;9.270;2023-03-14T06:06:45;0.27;;;0.10;;
46751;SDS011;32497;48.936;9.270;2023-03-14T06:11:47;3.87;;;0.30;;
46751;SDS011;32497;48.936;9.270;2023-03-14T06:16:48;1.60;;;0.20;;
46751;SDS011;32497;48.936;9.270;2023-03-14T06:21:52;1.03;;;0.30;;
46751;SDS011;32497;48.936;9.270;2023-03-14T06:26:54;2.30;;;0.30;;
46751;SDS011;32497;48.936;9.270;2023-03-14T06:31:55;0.60;;;0.20;;
46751;SDS011;32497;48.936;9.270;2023-03-14T06:36:58;0.53;;;0.13;;
46751;SDS011;32497;48.936;9.270;2023-03-14T06:42:00;0.80;;;0.20;;
46751;SDS011;32497;48.936;9.270;2023-03-14T06:47:02;0.23;;;0.10;;
46751;SDS011;32497;48.936;9.270;2023-03-14T06:52:04;0.40;;;0.20;;
46751;SDS011;32497;48.936;9.270;2023-03-14T06:57:06;1.47;;;0.37;;
46751;SDS011;32497;48.936;9.270;2023-03-14T07:02:07;0.80;;;0.20;;
46751;SDS011;32497;48.936;9.270;2023-03-14T07:07:13;0.50;;;0.10;;
46751;SDS011;32497;48.936;9.270;2023-03-14T07:12:14;0.33;;;0.10;;
46751;SDS011;32497;48.936;9.270;2023-03-14T07:17:15;0.30;;;0.20;;
46751;SDS011;32497;48.936;9.270;2023-03-14T07:22:17;1.33;;;0.30;;
46751;SDS011;32497;48.936;9.270;2023-03-14T07:27:19;1.37;;;0.27;;
46751;SDS011;32497;48.936;9.270;2023-03-14T07:32:21;0.30;;;0.13;;
46751;SDS011;32497;48.936;9.270;2023-03-14T07:37:24;0.80;;;0.10;;
46751;SDS011;32497;48.936;9.270;2023-03-14T07:42:25;1.03;;;0.10;;
46751;SDS011;32497;48.936;9.270;2023-03-14T07:47:35;0.10;;;0.10;;
46751;SDS011;32497;48.936;9.270;2023-03-14T07:52:37;0.30;;;0.00;;
46751;SDS011;32497;48.936;9.270;2023-03-14T07:57:38;1.43;;;0.20;;
46751;SDS011;32497;48.936;9.270;2023-03-14T08:02:39;0.40;;;0.10;;
46751;SDS011;32497;48.936;9.270;2023-03-14T08:07:42;1.60;;;0.10;;
46751;SDS011;32497;48.936;9.270;2023-03-14T08:12:43;0.00;;;0.00;;
46751;SDS011;32497;48.936;9.270;2023-03-14T08:17:45;0.93;;;0.20;;
46751;SDS011;32497;48.936;9.270;2023-03-14T08:22:47;0.20;;;0.10;;
46751;SDS011;32497;48.936;9.270;2023-03-14T08:27:48;0.17;;;0.00;;
46751;SDS011;32497;48.936;9.270;2023-03-14T08:32:50;0.00;;;0.00;;
46751;SDS011;32497;48.936;9.270;2023-03-14T08:37:52;0.03;;;0.00;;
46751;SDS011;32497;48.936;9.270;2023-03-14T08:42:53;0.10;;;0.00;;
46751;SDS011;32497;48.936;9.270;2023-03-14T08:47:54;0.20;;;0.00;;
46751;SDS011;32497;48.936;9.270;2023-03-14T08:52:57;0.00;;;0.00;;
46751;SDS011;32497;48.936;9.270;2023-03-14T08:57:58;0.10;;;0.00;;
46751;SDS011;32497;48.936;9.270;2023-03-14T09:02:59;0.10;;;0.10;;
46751;SDS011;32497;48.936;9.270;2023-03-14T09:08:01;0.10;;;0.00;;
46751;SDS011;32497;48.936;9.270;2023-03-14T09:13:02;0.00;;;0.00;;
46751;SDS011;32497;48.936;9.270;2023-03-14T09:18:04;0.00;;;0.00;;
46751;SDS011;32497;48.936;9.270;2023-03-14T09:23:06;0.10;;;0.00;;
46751;SDS011;32497;48.936;9.270;2023-03-14T09:28:07;0.10;;;0.00;;
46751;SDS011;32497;48.936;9.270;2023-03-14T09:33:08;0.00;;;0.00;;
46751;SDS011;32497;48.936;9.270;2023-03-14T09:38:11;0.47;;;0.10;;
46751;SDS011;32497;48.936;9.270;2023-03-14T09:43:12;0.30;;;0.03;;
46751;SDS011;32497;48.936;9.270;2023-03-14T09:48:15;0.10;;;0.00;;
46751;SDS011;32497;48.936;9.270;2023-03-14T09:53:21;0.00;;;0.00;;
46751;SDS011;32497;48.936;9.270;2023-03-14T09:58:26;0.00;;;0.00;;
46751;SDS011;32497;48.936;9.270;2023-03-14T10:03:29;0.00;;;0.00;;
46751;SDS011;32497;48.936;9.270;2023-03-14T10:08:34;0.00;;;0.00;;
46751;SDS011;32497;48.936;9.270;2023-03-14T10:13:35;0.00;;;0.00;;
46751;SDS011;32497;48.936;9.270;2023-03-14T10:18:49;0.70;;;0.10;;
46751;SDS011;32497;48.936;9.270;2023-03-14T10:23:51;0.07;;;0.00;;
46751;SDS011;32497;48.936;9.270;2023-03-14T10:28:52;0.00;;;0.00;;
46751;SDS011;32497;48.936;9.270;2023-03-14T10:34:01;0.00;;;0.00;;
46751;SDS011;32497;48.936;9.270;2023-03-14T10:39:21;0.00;;;0.00;;
46751;SDS011;32497;48.936;9.270;2023-03-14T10:44:28;0.10;;;0.00;;
46751;SDS011;32497;48.936;9.270;2023-03-14T10:49:31;0.00;;;0.00;;
46751;SDS011;32497;48.936;9.270;2023-03-14T10:54:35;0.00;;;0.00;;
46751;SDS011;32497;48.936;9.270;2023-03-14T10:59:36;0.73;;;0.10;;
46751;SDS011;32497;48.936;9.270;2023-03-14T11:04:45;0.07;;;0.00;;
46751;SDS011;32497;48.936;9.270;2023-03-14T11:10:00;0.00;;;0.00;;
46751;SDS011;32497;48.936;9.270;2023-03-14T11:15:11;0.10;;;0.00;;
46751;SDS011;32497;48.936;9.270;2023-03-14T11:20:24;0.30;;;0.03;;
46751;SDS011;32497;48.936;9.270;2023-03-14T11:25:41;0.20;;;0.00;;
46751;SDS011;32497;48.936;9.270;2023-03-14T11:30:49;0.00;;;0.00;;
46751;SDS011;32497;48.936;9.270;2023-03-14T11:35:53;0.00;;;0.00;;
46751;SDS011;32497;48.936;9.270;2023-03-14T11:41:02;0.00;;;0.00;;
46751;SDS011;32497;48.936;9.270;2023-03-14T11:46:05;0.10;;;0.10;;
46751;SDS011;32497;48.936;9.270;2023-03-14T11:51:12;0.30;;;0.20;;
46751;SDS011;32497;48.936;9.270;2023-03-14T11:56:20;0.10;;;0.00;;
46751;SDS011;32497;48.936;9.270;2023-03-14T12:01:28;0.00;;;0.00;;
46751;SDS011;32497;48.936;9.270;2023-03-14T12:06:44;0.00;;;0.00;;
46751;SDS011;32497;48.936;9.270;2023-03-14T12:11:49;0.00;;;0.00;;
46751;SDS011;32497;48.936;9.270;2023-03-14T12:16:53;0.03;;;0.00;;
46751;SDS011;32497;48.936;9.270;2023-03-14T12:21:57;0.00;;;0.00;;
46751;SDS011;32497;48.936;9.270;2023-03-14T12:27:04;0.40;;;0.00;;
46751;SDS011;32497;48.936;9.270;2023-03-14T12:32:07;0.00;;;0.00;;
46751;SDS011;32497;48.936;9.270;2023-03-14T12:37:26;1.77;;;0.30;;
46751;SDS011;32497;48.936;9.270;2023-03-14T12:42:41;1.00;;;0.27;;
46751;SDS011;32497;48.936;9.270;2023-03-14T12:53:18;0.50;;;0.20;;
46751;SDS011;32497;48.936;9.270;2023-03-14T12:58:43;1.57;;;0.47;;
46751;SDS011;32497;48.936;9.270;2023-03-14T13:03:49;0.83;;;0.40;;
46751;SDS011;32497;48.936;9.270;2023-03-14T13:08:52;0.33;;;0.20;;
46751;SDS011;32497;48.936;9.270;2023-03-14T13:13:57;1.00;;;0.40;;
46751;SDS011;32497;48.936;9.270;2023-03-14T13:18:59;1.10;;;0.20;;
46751;SDS011;32497;48.936;9.270;2023-03-14T13:24:04;0.17;;;0.10;;
46751;SDS011;32497;48.936;9.270;2023-03-14T13:29:15;0.93;;;0.27;;
46751;SDS011;32497;48.936;9.270;2023-03-14T13:34:17;0.30;;;0.20;;
46751;SDS011;32497;48.936;9.270;2023-03-14T13:39:19;1.03;;;0.20;;
46751;SDS011;32497;48.936;9.270;2023-03-14T13:44:24;0.50;;;0.20;;
46751;SDS011;32497;48.936;9.270;2023-03-14T13:49:28;0.27;;;0.10;;
46751;SDS011;32497;48.936;9.270;2023-03-14T13:54:31;3.53;;;0.20;;
46751;SDS011;32497;48.936;9.270;2023-03-14T13:59:34;0.57;;;0.30;;
46751;SDS011;32497;48.936;9.270;2023-03-14T14:04:36;0.30;;;0.10;;
46751;SDS011;32497;48.936;9.270;2023-03-14T14:09:38;0.20;;;0.10;;
46751;SDS011;32497;48.936;9.270;2023-03-14T14:14:42;0.43;;;0.20;;
46751;SDS011;32497;48.936;9.270;2023-03-14T14:19:46;0.27;;;0.10;;
46751;SDS011;32497;48.936;9.270;2023-03-14T14:24:48;0.37;;;0.13;;
46751;SDS011;32497;48.936;9.270;2023-03-14T14:29:57;0.27;;;0.00;;
46751;SDS011;32497;48.936;9.270;2023-03-14T14:35:01;0.30;;;0.10;;
46751;SDS011;32497;48.936;9.270;2023-03-14T14:40:06;0.23;;;0.10;;
46751;SDS011;32497;48.936;9.270;2023-03-14T14:45:12;1.57;;;0.30;;
46751;SDS011;32497;48.936;9.270;2023-03-14T14:50:20;0.20;;;0.10;;
46751;SDS011;32497;48.936;9.270;2023-03-14T14:55:29;0.60;;;0.13;;
46751;SDS011;32497;48.936;9.270;2023-03-14T15:00:41;0.30;;;0.13;;
46751;SDS011;32497;48.936;9.270;2023-03-14T15:05:50;0.57;;;0.17;;
46751;SDS011;32497;48.936;9.270;2023-03-14T15:10:51;0.63;;;0.20;;
46751;SDS011;32497;48.936;9.270;2023-03-14T15:15:53;0.40;;;0.27;;
46751;SDS011;32497;48.936;9.270;2023-03-14T15:20:55;0.43;;;0.10;;
46751;SDS011;32497;48.936;9.270;2023-03-14T15:25:56;0.23;;;0.07;;
46751;SDS011;32497;48.936;9.270;2023-03-14T15:30:58;1.67;;;0.30;;
46751;SDS011;32497;48.936;9.270;2023-03-14T15:35:59;1.10;;;0.30;;
46751;SDS011;32497;48.936;9.270;2023-03-14T15:41:00;3.13;;;0.20;;
46751;SDS011;32497;48.936;9.270;2023-03-14T15:46:03;1.10;;;0.30;;
46751;SDS011;32497;48.936;9.270;2023-03-14T15:51:04;0.87;;;0.20;;
46751;SDS011;32497;48.936;9.270;2023-03-14T15:56:06;4.53;;;0.27;;
46751;SDS011;32497;48.936;9.270;2023-03-14T16:01:12;0.37;;;0.20;;
46751;SDS011;32497;48.936;9.270;2023-03-14T16:06:15;2.70;;;0.60;;
46751;SDS011;32497;48.936;9.270;2023-03-14T16:11:16;0.67;;;0.20;;
46751;SDS011;32497;48.936;9.270;2023-03-14T16:16:18;0.23;;;0.10;;
46751;SDS011;32497;48.936;9.270;2023-03-14T16:21:20;0.60;;;0.30;;
46751;SDS011;32497;48.936;9.270;2023-03-14T16:26:22;0.10;;;0.10;;
46751;SDS011;32497;48.936;9.270;2023-03-14T16:31:24;0.53;;;0.10;;
46751;SDS011;32497;48.936;9.270;2023-03-14T16:36:25;0.40;;;0.20;;
46751;SDS011;32497;48.936;9.270;2023-03-14T16:41:26;0.83;;;0.30;;
46751;SDS011;32497;48.936;9.270;2023-03-14T16:46:29;0.20;;;0.10;;
46751;SDS011;32497;48.936;9.270;2023-03-14T16:51:30;0.83;;;0.30;;
46751;SDS011;32497;48.936;9.270;2023-03-14T16:56:31;0.83;;;0.40;;
46751;SDS011;32497;48.936;9.270;2023-03-14T17:01:43;0.67;;;0.10;;
46751;SDS011;32497;48.936;9.270;2023-03-14T17:07:08;0.63;;;0.30;;
46751;SDS011;32497;48.936;9.270;2023-03-14T17:12:10;1.80;;;0.20;;
46751;SDS011;32497;48.936;9.270;2023-03-14T17:17:12;0.40;;;0.17;;
46751;SDS011;32497;48.936;9.270;2023-03-14T17:22:13;0.43;;;0.40;;
46751;SDS011;32497;48.936;9.270;2023-03-14T17:27:14;0.60;;;0.20;;
46751;SDS011;32497;48.936;9.270;2023-03-14T17:32:17;1.57;;;0.40;;
46751;SDS011;32497;48.936;9.270;2023-03-14T17:37:18;0.43;;;0.20;;
46751;SDS011;32497;48.936;9.270;2023-03-14T17:42:19;1.93;;;0.50;;
46751;SDS011;32497;48.936;9.270;2023-03-14T17:47:21;2.83;;;0.30;;
46751;SDS011;32497;48.936;9.270;2023-03-14T17:52:23;2.10;;;0.40;;
46751;SDS011;32497;48.936;9.270;2023-03-14T17:57:24;1.47;;;0.60;;
46751;SDS011;32497;48.936;9.270;2023-03-14T18:02:26;1.07;;;0.40;;
46751;SDS011;32497;48.936;9.270;2023-03-14T18:07:28;1.33;;;0.60;;
46751;SDS011;32497;48.936;9.270;2023-03-14T18:12:32;0.80;;;0.40;;
46751;SDS011;32497;48.936;9.270;2023-03-14T18:17:34;3.23;;;0.20;;
46751;SDS011;32497;48.936;9.270;2023-03-14T18:22:36;0.43;;;0.23;;
46751;SDS011;32497;48.936;9.270;2023-03-14T18:27:37;1.27;;;0.40;;
46751;SDS011;32497;48.936;9.270;2023-03-14T18:32:39;0.30;;;0.20;;
46751;SDS011;32497;48.936;9.270;2023-03-14T18:37:40;1.53;;;0.43;;
46751;SDS011;32497;48.936;9.270;2023-03-14T18:42:42;0.50;;;0.30;;
46751;SDS011;32497;48.936;9.270;2023-03-14T18:47:44;2.67;;;0.33;;
46751;SDS011;32497;48.936;9.270;2023-03-14T18:52:45;0.47;;;0.20;;
46751;SDS011;32497;48.936;9.270;2023-03-14T18:57:46;1.20;;;0.33;;
46751;SDS011;32497;48.936;9.270;2023-03-14T19:02:49;1.30;;;0.13;;
46751;SDS011;32497;48.936;9.270;2023-03-14T19:07:51;1.27;;;0.30;;
46751;SDS011;32497;48.936;9.270;2023-03-14T19:12:54;0.60;;;0.30;;
46751;SDS011;32497;48.936;9.270;2023-03-14T19:17:57;0.20;;;0.20;;
46751;SDS011;32497;48.936;9.270;2023-03-14T19:22:58;1.20;;;0.20;;
46751;SDS011;32497;48.936;9.270;2023-03-14T19:27:59;2.40;;;0.30;;
46751;SDS011;32497;48.936;9.270;2023-03-14T19:33:02;0.63;;;0.20;;
46751;SDS011;32497;48.936;9.270;2023-03-14T19:38:03;0.30;;;0.10;;
46751;SDS011;32497;48.936;9.270;2023-03-14T19:43:05;1.07;;;0.27;;
46751;SDS011;32497;48.936;9.270;2023-03-14T19:48:08;0.20;;;0.10;;
46751;SDS011;32497;48.936;9.270;2023-03-14T19:53:10;0.23;;;0.20;;
46751;SDS011;32497;48.936;9.270;2023-03-14T19:58:11;0.77;;;0.20;;
46751;SDS011;32497;48.936;9.270;2023-03-14T20:03:14;0.60;;;0.30;;
46751;SDS011;32497;48.936;9.270;2023-03-14T20:08:15;1.90;;;0.40;;
46751;SDS011;32497;48.936;9.270;2023-03-14T20:13:16;3.40;;;0.30;;
46751;SDS011;32497;48.936;9.270;2023-03-14T20:18:18;0.67;;;0.40;;
46751;SDS011;32497;48.936;9.270;2023-03-14T20:23:20;2.07;;;0.30;;
46751;SDS011;32497;48.936;9.270;2023-03-14T20:28:21;1.70;;;0.60;;
46751;SDS011;32497;48.936;9.270;2023-03-14T20:33:23;0.70;;;0.40;;
46751;SDS011;32497;48.936;9.270;2023-03-14T20:38:25;0.50;;;0.23;;
46751;SDS011;32497;48.936;9.270;2023-03-14T20:43:27;1.67;;;0.43;;
46751;SDS011;32497;48.936;9.270;2023-03-14T20:48:30;3.10;;;0.50;;
46751;SDS011;32497;48.936;9.270;2023-03-14T20:53:32;1.93;;;0.60;;
46751;SDS011;32497;48.936;9.270;2023-03-14T20:58:33;1.13;;;0.40;;
46751;SDS011;32497;48.936;9.270;2023-03-14T21:03:35;1.00;;;0.40;;
46751;SDS011;32497;48.936;9.270;2023-03-14T21:08:36;2.60;;;0.73;;
46751;SDS011;32497;48.936;9.270;2023-03-14T21:13:37;0.77;;;0.37;;
46751;SDS011;32497;48.936;9.270;2023-03-14T21:18:40;0.43;;;0.30;;
46751;SDS011;32497;48.936;9.270;2023-03-14T21:23:41;1.37;;;0.60;;
46751;SDS011;32497;48.936;9.270;2023-03-14T21:28:42;0.63;;;0.43;;
46751;SDS011;32497;48.936;9.270;2023-03-14T21:33:45;1.13;;;0.50;;
46751;SDS011;32497;48.936;9.270;2023-03-14T21:38:46;1.13;;;0.40;;
46751;SDS011;32497;48.936;9.270;2023-03-14T21:43:47;3.33;;;0.70;;
46751;SDS011;32497;48.936;9.270;2023-03-14T21:48:49;1.20;;;0.57;;
46751;SDS011;32497;48.936;9.270;2023-03-14T21:53:51;2.47;;;1.00;;
46751;SDS011;32497;48.936;9.270;2023-03-14T21:58:52;2.53;;;0.70;;
46751;SDS011;32497;48.936;9.270;2023-03-14T22:03:54;1.20;;;0.70;;
46751;SDS011;32497;48.936;9.270;2023-03-14T22:08:56;1.00;;;0.67;;
46751;SDS011;32497;48.936;9.270;2023-03-14T22:13:57;0.93;;;0.53;;
46751;SDS011;32497;48.936;9.270;2023-03-14T22:18:59;3.17;;;0.80;;
46751;SDS011;32497;48.936;9.270;2023-03-14T22:24:00;0.67;;;0.50;;
46751;SDS011;32497;48.936;9.270;2023-03-14T22:29:02;1.17;;;0.70;;
46751;SDS011;32497;48.936;9.270;2023-03-14T22:34:04;1.40;;;0.70;;
46751;SDS011;32497;48.936;9.270;2023-03-14T22:39:05;1.47;;;0.73;;
46751;SDS011;32497;48.936;9.270;2023-03-14T22:44:07;1.23;;;0.70;;
46751;SDS011;32497;48.936;9.270;2023-03-14T22:49:10;0.77;;;0.40;;
46751;SDS011;32497;48.936;9.270;2023-03-14T22:54:11;0.90;;;0.30;;
46751;SDS011;32497;48.936;9.270;2023-03-14T22:59:12;1.10;;;0.53;;
46751;SDS011;32497;48.936;9.270;2023-03-14T23:04:15;0.87;;;0.50;;
46751;SDS011;32497;48.936;9.270;2023-03-14T23:09:16;0.60;;;0.40;;
46751;SDS011;32497;48.936;9.270;2023-03-14T23:14:17;2.03;;;0.40;;
46751;SDS011;32497;48.936;9.270;2023-03-14T23:19:20;0.83;;;0.53;;
46751;SDS011;32497;48.936;9.270;2023-03-14T23:24:21;1.43;;;0.67;;
46751;SDS011;32497;48.936;9.270;2023-03-14T23:29:22;1.47;;;0.80;;
46751;SDS011;32497;48.936;9.270;2023-03-14T23:34:25;3.37;;;1.00;;
46751;SDS011;32497;48.936;9.270;2023-03-14T23:39:26;1.40;;;0.50;;
46751;SDS011;32497;48.936;9.270;2023-03-14T23:44:27;1.73;;;0.77;;
46751;SDS011;32497;48.936;9.270;2023-03-14T23:49:29;2.33;;;0.77;;
46751;SDS011;32497;48.936;9.270;2023-03-14T23:54:30;1.37;;;0.77;;
46751;SDS011;32497;48.936;9.270;2023-03-14T23:59:33;2.40;;;1.20;;
